createdAt,value
2019-03-17T00:00:25.239Z,98117.75
2019-03-17T00:02:53.986Z,98142.69
2019-03-17T00:05:21.109Z,98136.22
2019-03-17T00:07:47.701Z,98115.29
2019-03-17T00:10:14.501Z,98131.48
2019-03-17T00:12:41.732Z,98134.59
2019-03-17T00:15:08.632Z,98131.98
2019-03-17T00:17:35.336Z,98122.11
2019-03-17T00:20:02.206Z,98124.05
2019-03-17T00:22:28.906Z,98101.55
2019-03-17T00:25:08.192Z,98075.95
2019-03-17T00:27:24.186Z,98092.31
2019-03-17T00:29:50.863Z,98102.20
2019-03-17T00:32:17.565Z,98101.86
2019-03-17T00:34:44.680Z,98101.71
2019-03-17T00:37:11.543Z,98100.41
2019-03-17T00:39:38.313Z,98102.19
2019-03-17T00:42:05.113Z,98096.86
2019-03-17T00:44:31.800Z,98103.81
2019-03-17T00:46:58.498Z,98102.20
2019-03-17T00:49:25.223Z,98082.44
2019-03-17T00:51:51.890Z,98053.17
2019-03-17T00:54:18.578Z,98086.34
2019-03-17T00:56:45.261Z,98086.17
2019-03-17T00:59:12.338Z,98081.17
2019-03-17T01:01:39.129Z,98070.16
2019-03-17T01:04:05.812Z,98081.81
2019-03-17T01:06:32.522Z,98074.35
2019-03-17T01:08:59.314Z,98068.52
2019-03-17T01:11:25.985Z,98036.36
2019-03-17T01:13:52.688Z,98053.33
2019-03-17T01:16:19.457Z,98041.84
2019-03-17T01:18:46.175Z,98041.20
2019-03-17T01:21:12.987Z,98041.00
2019-03-17T01:23:39.666Z,98031.16
2019-03-17T01:26:06.333Z,98016.09
2019-03-17T01:28:33.143Z,98024.03
2019-03-17T01:30:59.923Z,98020.48
2019-03-17T01:33:26.734Z,98017.69
2019-03-17T01:35:53.532Z,98006.86
2019-03-17T01:38:20.244Z,98017.38
2019-03-17T01:40:47.011Z,98000.23
2019-03-17T01:43:14.107Z,97991.31
2019-03-17T01:45:40.771Z,97965.72
2019-03-17T01:48:07.464Z,97979.66
2019-03-17T01:50:34.150Z,97979.82
2019-03-17T01:53:00.741Z,97978.48
2019-03-17T01:55:27.451Z,97970.92
2019-03-17T01:57:54.165Z,97959.57
2019-03-17T02:00:20.951Z,97956.81
2019-03-17T02:02:47.647Z,97950.03
2019-03-17T02:05:21.949Z,97965.87
2019-03-17T02:07:43.051Z,97941.60
2019-03-17T02:10:09.805Z,97946.10
2019-03-17T02:12:36.591Z,97924.30
2019-03-17T02:15:03.759Z,97937.72
2019-03-17T02:17:30.345Z,97923.75
2019-03-17T02:19:57.132Z,97899.81
2019-03-17T02:22:24.319Z,97933.62
2019-03-17T02:24:51.085Z,97912.29
2019-03-17T02:27:17.779Z,97927.66
2019-03-17T02:29:44.478Z,97925.38
2019-03-17T02:32:11.141Z,97945.80
2019-03-17T02:34:37.830Z,97895.80
2019-03-17T02:37:04.636Z,97855.77
2019-03-17T02:39:31.720Z,97909.35
2019-03-17T02:41:58.412Z,97862.18
2019-03-17T02:44:24.991Z,97915.47
2019-03-17T02:46:51.652Z,97869.73
2019-03-17T02:49:18.252Z,97885.45
2019-03-17T02:51:44.811Z,97868.15
2019-03-17T02:54:11.520Z,97874.78
2019-03-17T02:56:38.261Z,97848.70
2019-03-17T02:59:05.209Z,97872.53
2019-03-17T03:01:31.773Z,97864.50
2019-03-17T03:03:58.562Z,97862.27
2019-03-17T03:06:25.369Z,97864.50
2019-03-17T03:08:52.037Z,97801.73
2019-03-17T03:11:18.717Z,97880.19
2019-03-17T03:13:45.288Z,97875.66
2019-03-17T03:16:11.858Z,97880.97
2019-03-17T03:18:38.564Z,97845.55
2019-03-17T03:21:05.355Z,97859.77
2019-03-17T03:23:32.056Z,97839.38
2019-03-17T03:25:58.720Z,97824.88
2019-03-17T03:28:25.397Z,97845.34
2019-03-17T03:30:52.264Z,97818.18
2019-03-17T03:33:18.951Z,97811.53
2019-03-17T03:35:45.534Z,97823.53
2019-03-17T03:38:12.313Z,97835.19
2019-03-17T03:40:39.029Z,97783.88
2019-03-17T03:43:05.806Z,97779.16
2019-03-17T03:45:32.777Z,97833.84
2019-03-17T03:47:59.364Z,97818.00
2019-03-17T03:50:26.164Z,97835.77
2019-03-17T03:52:52.945Z,97799.39
2019-03-17T03:55:19.787Z,97821.39
2019-03-17T03:57:46.369Z,97818.58
2019-03-17T04:00:13.668Z,97815.58
2019-03-17T04:02:40.454Z,97833.37
2019-03-17T04:05:07.319Z,97797.73
2019-03-17T04:07:33.940Z,97775.91
2019-03-17T04:10:00.995Z,97793.39
2019-03-17T04:12:27.676Z,97789.70
2019-03-17T04:14:54.363Z,97813.34
2019-03-17T04:17:21.140Z,97798.17
2019-03-17T04:19:47.738Z,97799.82
2019-03-17T04:22:14.386Z,97763.70
2019-03-17T04:24:41.193Z,97788.00
2019-03-17T04:27:07.878Z,97761.41
2019-03-17T04:29:34.585Z,97791.88
2019-03-17T04:32:01.545Z,97765.19
2019-03-17T04:34:28.145Z,97786.08
2019-03-17T04:36:54.822Z,97792.73
2019-03-17T04:39:21.413Z,97759.71
2019-03-17T04:41:48.087Z,97778.50
2019-03-17T04:44:20.728Z,97791.14
2019-03-17T04:46:43.257Z,97734.00
2019-03-17T04:49:09.939Z,97764.42
2019-03-17T04:51:36.531Z,97764.07
2019-03-17T04:54:03.309Z,97758.25
2019-03-17T04:56:30.028Z,97752.14
2019-03-17T04:58:56.792Z,97763.73
2019-03-17T05:01:23.377Z,97761.48
2019-03-17T05:03:51.227Z,97767.11
2019-03-17T05:06:17.813Z,97733.95
2019-03-17T05:08:44.407Z,97779.89
2019-03-17T05:11:11.503Z,97758.55
2019-03-17T05:13:38.267Z,97781.83
2019-03-17T05:16:05.064Z,97767.46
2019-03-17T05:18:31.832Z,97768.76
2019-03-17T05:20:58.730Z,97775.06
2019-03-17T05:23:25.438Z,97784.41
2019-03-17T05:25:52.117Z,97763.34
2019-03-17T05:28:18.694Z,97774.36
2019-03-17T05:30:45.487Z,97792.98
2019-03-17T05:33:12.159Z,97758.03
2019-03-17T05:35:38.956Z,97656.09
2019-03-17T05:38:05.648Z,97798.82
2019-03-17T05:40:32.497Z,97793.77
2019-03-17T05:42:59.070Z,97795.41
2019-03-17T05:45:25.675Z,97793.94
2019-03-17T05:47:52.348Z,97800.29
2019-03-17T05:50:19.161Z,97797.48
2019-03-17T05:52:48.100Z,97803.83
2019-03-17T05:55:14.917Z,97810.78
2019-03-17T05:57:41.621Z,97797.83
2019-03-17T06:00:10.449Z,97802.82
2019-03-17T06:02:37.231Z,97801.81
2019-03-17T06:05:04.648Z,97807.48
2019-03-17T06:07:31.412Z,97817.17
2019-03-17T06:09:58.092Z,97811.88
2019-03-17T06:12:24.730Z,97821.39
2019-03-17T06:14:51.437Z,97828.64
2019-03-17T06:17:18.252Z,97784.31
2019-03-17T06:19:45.051Z,97857.14
2019-03-17T06:22:11.631Z,97830.45
2019-03-17T06:24:38.631Z,97821.98
2019-03-17T06:27:05.346Z,97823.17
2019-03-17T06:29:32.142Z,97816.58
2019-03-17T06:31:58.948Z,97811.36
2019-03-17T06:34:25.543Z,97821.13
2019-03-17T06:36:54.478Z,97843.31
2019-03-17T06:39:21.573Z,97855.95
2019-03-17T06:41:48.685Z,97847.95
2019-03-17T06:44:15.369Z,97836.31
2019-03-17T06:46:42.459Z,97852.01
2019-03-17T06:49:09.256Z,97861.88
2019-03-17T06:51:35.942Z,97818.41
2019-03-17T06:54:04.465Z,97871.92
2019-03-17T06:56:31.582Z,97887.78
2019-03-17T06:58:58.264Z,97850.28
2019-03-17T07:01:25.296Z,97877.75
2019-03-17T07:03:51.987Z,97880.16
2019-03-17T07:06:18.692Z,97863.21
2019-03-17T07:08:45.494Z,97863.35
2019-03-17T07:11:12.200Z,97879.86
2019-03-17T07:13:39.107Z,97876.80
2019-03-17T07:16:05.935Z,97886.97
2019-03-17T07:18:32.813Z,97893.45
2019-03-17T07:20:59.863Z,97873.27
2019-03-17T07:23:26.450Z,97880.70
2019-03-17T07:25:54.915Z,97869.56
2019-03-17T07:28:21.810Z,97889.42
2019-03-17T07:30:48.617Z,97891.35
2019-03-17T07:33:15.343Z,97891.52
2019-03-17T07:35:43.172Z,97920.56
2019-03-17T07:38:12.640Z,97917.18
2019-03-17T07:41:00.559Z,97927.16
2019-03-17T07:43:27.468Z,97933.44
2019-03-17T07:45:54.265Z,97911.85
2019-03-17T07:48:21.163Z,97963.47
2019-03-17T07:50:48.019Z,97944.89
2019-03-17T07:53:14.924Z,97949.54
2019-03-17T07:55:41.814Z,97974.73
2019-03-17T07:58:08.764Z,97678.10
2019-03-17T08:00:35.612Z,97946.02
2019-03-17T08:03:02.590Z,97937.78
2019-03-17T08:05:29.444Z,97928.44
2019-03-17T08:10:31.148Z,97970.91
2019-03-17T08:12:57.723Z,97896.81
2019-03-17T08:15:24.391Z,97917.49
2019-03-17T08:17:51.071Z,97910.88
2019-03-17T08:20:17.844Z,97929.59
2019-03-17T08:22:44.548Z,97904.59
2019-03-17T08:25:11.206Z,97911.51
2019-03-17T08:27:37.912Z,97912.63
2019-03-17T08:30:05.074Z,97917.16
2019-03-17T08:32:31.857Z,97932.19
2019-03-17T08:34:58.606Z,97902.31
2019-03-17T08:37:26.390Z,97938.30
2019-03-17T08:39:53.056Z,97917.63
2019-03-17T08:42:19.744Z,97947.83
2019-03-17T08:44:46.414Z,97949.08
2019-03-17T08:47:13.115Z,97954.91
2019-03-17T08:49:39.701Z,97973.61
2019-03-17T08:52:06.469Z,97950.78
2019-03-17T08:54:33.181Z,97971.78
2019-03-17T08:56:59.844Z,97977.27
2019-03-17T08:59:26.427Z,97962.56
2019-03-17T09:01:53.088Z,97965.43
2019-03-17T09:04:19.683Z,97956.58
2019-03-17T09:06:46.262Z,97991.91
2019-03-17T09:09:13.035Z,97967.52
2019-03-17T09:11:39.687Z,97986.88
2019-03-17T09:14:06.391Z,97993.47
2019-03-17T09:16:33.052Z,97993.30
2019-03-17T09:18:59.788Z,97995.70
2019-03-17T09:21:26.464Z,98019.52
2019-03-17T09:23:53.151Z,98058.69
2019-03-17T09:26:19.911Z,98088.64
2019-03-17T09:28:46.628Z,98062.27
2019-03-17T09:31:13.195Z,98092.31
2019-03-17T09:33:39.793Z,98085.88
2019-03-17T09:36:06.577Z,98077.05
2019-03-17T09:38:33.145Z,98080.29
2019-03-17T09:40:59.850Z,98053.16
2019-03-17T09:43:26.523Z,98066.92
2019-03-17T09:45:53.113Z,98063.48
2019-03-17T09:48:19.799Z,98061.76
2019-03-17T09:50:46.611Z,98077.75
2019-03-17T09:53:13.292Z,98065.31
2019-03-17T09:55:39.966Z,98078.95
2019-03-17T09:58:06.779Z,98101.33
2019-03-17T10:00:33.550Z,98098.43
2019-03-17T10:03:00.332Z,98120.41
2019-03-17T10:05:27.023Z,98103.81
2019-03-17T10:07:53.704Z,98118.04
2019-03-17T10:10:20.497Z,98113.86
2019-03-17T10:12:47.079Z,98136.51
2019-03-17T10:15:13.890Z,98130.67
2019-03-17T10:17:40.667Z,98141.67
2019-03-17T10:20:09.974Z,98084.11
2019-03-17T10:22:39.642Z,98134.23
2019-03-17T10:25:06.466Z,98147.28
2019-03-17T10:27:33.137Z,98154.09
2019-03-17T10:29:59.835Z,98147.95
2019-03-17T10:32:26.661Z,98158.22
2019-03-17T10:34:53.328Z,98137.06
2019-03-17T10:37:20.037Z,98145.51
2019-03-17T10:39:46.826Z,98141.53
2019-03-17T10:42:13.641Z,98141.61
2019-03-17T10:44:40.453Z,98153.71
2019-03-17T10:47:07.222Z,98154.36
2019-03-17T10:49:33.905Z,98155.47
2019-03-17T10:52:00.472Z,98162.73
2019-03-17T10:54:27.481Z,98137.45
2019-03-17T10:56:54.317Z,98160.80
2019-03-17T10:59:21.116Z,98149.06
2019-03-17T11:01:47.766Z,98150.67
2019-03-17T11:04:14.552Z,98143.80
2019-03-17T11:06:41.232Z,98153.67
2019-03-17T11:09:08.014Z,98178.82
2019-03-17T11:11:34.771Z,98153.26
2019-03-17T11:14:01.377Z,98178.48
2019-03-17T11:16:28.062Z,98166.78
2019-03-17T11:18:54.747Z,98168.31
2019-03-17T11:21:21.441Z,98165.20
2019-03-17T11:23:48.025Z,98181.95
2019-03-17T11:26:14.713Z,98041.38
2019-03-17T11:28:41.383Z,98169.95
2019-03-17T11:31:08.088Z,98168.12
2019-03-17T11:33:34.754Z,98175.47
2019-03-17T11:36:01.589Z,98185.45
2019-03-17T11:38:28.335Z,98178.16
2019-03-17T11:40:55.035Z,98156.48
2019-03-17T11:43:21.790Z,98160.60
2019-03-17T11:45:48.570Z,98162.53
2019-03-17T11:48:15.232Z,98168.66
2019-03-17T11:50:42.032Z,98180.16
2019-03-17T11:53:08.848Z,98173.87
2019-03-17T11:55:35.707Z,98183.37
2019-03-17T11:58:02.273Z,98161.64
2019-03-17T12:00:29.051Z,98166.91
2019-03-17T12:02:55.823Z,98181.89
2019-03-17T12:05:22.513Z,98194.72
2019-03-17T12:07:49.303Z,98198.86
2019-03-17T12:10:16.074Z,98201.73
2019-03-17T12:12:42.853Z,98203.78
2019-03-17T12:15:12.884Z,98181.55
2019-03-17T12:17:39.743Z,98209.61
2019-03-17T12:20:07.517Z,98119.20
2019-03-17T12:22:34.092Z,98254.52
2019-03-17T12:25:00.735Z,98215.66
2019-03-17T12:27:27.504Z,98221.94
2019-03-17T12:29:54.349Z,98247.09
2019-03-17T12:32:21.015Z,98217.06
2019-03-17T12:34:47.599Z,98222.80
2019-03-17T12:37:14.435Z,98226.38
2019-03-17T12:39:41.102Z,98235.77
2019-03-17T12:42:07.900Z,98233.40
2019-03-17T12:44:34.576Z,98229.33
2019-03-17T12:47:01.190Z,98207.04
2019-03-17T12:49:27.963Z,98241.37
2019-03-17T12:51:54.775Z,98246.05
2019-03-17T12:54:21.421Z,98245.88
2019-03-17T12:56:48.041Z,98242.67
2019-03-17T12:59:14.720Z,98226.70
2019-03-17T13:01:41.393Z,98230.69
2019-03-17T13:04:08.179Z,98214.93
2019-03-17T13:06:34.860Z,98235.02
2019-03-17T13:09:01.445Z,98239.45
2019-03-17T13:11:28.114Z,98238.28
2019-03-17T13:13:54.807Z,98236.64
2019-03-17T13:16:21.407Z,98241.64
2019-03-17T13:18:48.174Z,98252.53
2019-03-17T13:21:14.971Z,98235.06
2019-03-17T13:23:41.642Z,98246.95
2019-03-17T13:26:10.322Z,98266.92
2019-03-17T13:28:36.910Z,98257.46
2019-03-17T13:31:03.706Z,98253.80
2019-03-17T13:33:30.377Z,98265.90
2019-03-17T13:35:56.960Z,98262.70
2019-03-17T13:38:23.640Z,98295.09
2019-03-17T13:40:50.346Z,98307.45
2019-03-17T13:43:17.125Z,98312.02
2019-03-17T13:45:43.843Z,98301.59
2019-03-17T13:48:10.636Z,98307.41
2019-03-17T13:50:37.513Z,98322.47
2019-03-17T13:53:04.203Z,98334.23
2019-03-17T13:55:31.026Z,98328.54
2019-03-17T13:57:57.801Z,98319.07
2019-03-17T14:00:24.605Z,98331.29
2019-03-17T14:02:51.284Z,98332.48
2019-03-17T14:05:17.965Z,98334.59
2019-03-17T14:07:44.758Z,98332.66
2019-03-17T14:10:14.454Z,98344.18
2019-03-17T14:12:41.587Z,98335.38
2019-03-17T14:15:09.455Z,98339.59
2019-03-17T14:17:36.249Z,98323.10
2019-03-17T14:20:03.734Z,98327.53
2019-03-17T14:22:30.416Z,98322.94
2019-03-17T14:24:57.083Z,98335.03
2019-03-17T14:27:23.860Z,98342.69
2019-03-17T14:29:50.447Z,98341.58
2019-03-17T14:32:17.134Z,98307.91
2019-03-17T14:34:43.906Z,98338.41
2019-03-17T14:37:10.660Z,98337.89
2019-03-17T14:39:39.392Z,98328.38
2019-03-17T14:42:06.218Z,98341.66
2019-03-17T14:44:34.552Z,98342.48
2019-03-17T14:47:01.266Z,98337.34
2019-03-17T14:49:27.829Z,98325.23
2019-03-17T14:51:54.672Z,98342.83
2019-03-17T14:54:21.486Z,98366.17
2019-03-17T14:56:48.086Z,98477.76
2019-03-17T14:59:14.690Z,98489.09
2019-03-17T15:01:41.380Z,98482.97
2019-03-17T15:04:08.147Z,98496.98
2019-03-17T15:06:34.863Z,98518.93
2019-03-17T15:09:01.655Z,98515.20
2019-03-17T15:11:28.334Z,98500.06
2019-03-17T15:13:55.018Z,98485.36
2019-03-17T15:16:21.691Z,98469.05
2019-03-17T15:18:48.740Z,98469.05
2019-03-17T15:21:15.433Z,98464.84
2019-03-17T15:23:42.131Z,98464.89
2019-03-17T15:26:08.910Z,98464.30
2019-03-17T15:28:35.700Z,98472.47
2019-03-17T15:31:11.410Z,98465.01
2019-03-17T15:33:30.949Z,98466.14
2019-03-17T15:35:57.517Z,98462.88
2019-03-17T15:38:24.097Z,98471.45
2019-03-17T15:40:50.653Z,98468.25
2019-03-17T15:43:17.436Z,98476.17
2019-03-17T15:45:44.110Z,98479.89
2019-03-17T15:48:10.801Z,98481.04
2019-03-17T15:50:37.470Z,98470.03
2019-03-17T15:53:04.257Z,98488.17
2019-03-17T15:55:31.036Z,98490.53
2019-03-17T15:57:57.820Z,98496.28
2019-03-17T16:00:26.658Z,98499.60
2019-03-17T16:02:54.007Z,98502.30
2019-03-17T16:05:21.024Z,98496.09
2019-03-17T16:07:47.885Z,98500.97
2019-03-17T16:10:15.872Z,98483.34
2019-03-17T16:12:42.664Z,98506.36
2019-03-17T16:15:10.448Z,98507.04
2019-03-17T16:17:37.032Z,98505.28
2019-03-17T16:20:04.237Z,98512.73
2019-03-17T16:22:30.893Z,98499.52
2019-03-17T16:24:57.490Z,98515.15
2019-03-17T16:27:24.160Z,98522.63
2019-03-17T16:29:50.959Z,98533.56
2019-03-17T16:32:17.623Z,98532.27
2019-03-17T16:34:44.468Z,98531.82
2019-03-17T16:37:11.282Z,98539.13
2019-03-17T16:39:37.878Z,98533.09
2019-03-17T16:42:04.646Z,98536.95
2019-03-17T16:44:31.346Z,98542.63
2019-03-17T16:46:58.107Z,98543.46
2019-03-17T16:49:24.801Z,98543.59
2019-03-17T16:51:51.642Z,98544.31
2019-03-17T16:54:18.225Z,98539.86
2019-03-17T16:56:44.920Z,98547.16
2019-03-17T16:59:11.700Z,98541.81
2019-03-17T17:01:38.267Z,98551.78
2019-03-17T17:04:05.154Z,98550.49
2019-03-17T17:06:31.922Z,98553.09
2019-03-17T17:08:58.623Z,98553.56
2019-03-17T17:11:25.338Z,98557.05
2019-03-17T17:13:52.115Z,98560.06
2019-03-17T17:16:18.794Z,98571.17
2019-03-17T17:18:45.493Z,98549.64
2019-03-17T17:21:12.282Z,98560.22
2019-03-17T17:23:38.995Z,98567.22
2019-03-17T17:26:09.928Z,98575.33
2019-03-17T17:28:36.619Z,98555.11
2019-03-17T17:31:03.432Z,98580.48
2019-03-17T17:33:30.104Z,98589.19
2019-03-17T17:35:56.805Z,98583.58
2019-03-17T17:38:23.534Z,98584.73
2019-03-17T17:40:50.236Z,98597.95
2019-03-17T17:43:16.944Z,98588.49
2019-03-17T17:45:43.653Z,98591.89
2019-03-17T17:48:10.229Z,98600.33
2019-03-17T17:50:37.024Z,98622.43
2019-03-17T17:53:03.800Z,98669.69
2019-03-17T17:55:30.542Z,98615.19
2019-03-17T17:57:57.363Z,98614.34
2019-03-17T18:00:24.442Z,98657.11
2019-03-17T18:02:51.231Z,98667.66
2019-03-17T18:05:18.043Z,98672.55
2019-03-17T18:07:44.822Z,98657.71
2019-03-17T18:10:11.604Z,98642.08
2019-03-17T18:12:38.310Z,98644.04
2019-03-17T18:15:06.524Z,98649.94
2019-03-17T18:17:33.362Z,98648.27
2019-03-17T18:20:00.338Z,98647.18
2019-03-17T18:22:26.927Z,98656.23
2019-03-17T18:24:53.643Z,98658.19
2019-03-17T18:27:20.237Z,98653.25
2019-03-17T18:29:47.038Z,98658.30
2019-03-17T18:32:13.822Z,98659.98
2019-03-17T18:34:40.661Z,98665.26
2019-03-17T18:37:07.445Z,98665.14
2019-03-17T18:39:34.094Z,98671.66
2019-03-17T18:42:00.900Z,98674.29
2019-03-17T18:44:27.734Z,98667.48
2019-03-17T18:46:54.526Z,98674.34
2019-03-17T18:49:21.089Z,98684.17
2019-03-17T18:51:47.678Z,98678.47
2019-03-17T18:54:14.370Z,98676.61
2019-03-17T18:56:40.972Z,98690.15
2019-03-17T18:59:07.646Z,98693.91
2019-03-17T19:01:34.246Z,98688.75
2019-03-17T19:04:01.015Z,98684.26
2019-03-17T19:06:27.853Z,98694.61
2019-03-17T19:08:54.426Z,98700.34
2019-03-17T19:11:21.223Z,98704.73
2019-03-17T19:13:47.932Z,98708.35
2019-03-17T19:16:14.614Z,98712.56
2019-03-17T19:18:41.417Z,98715.02
2019-03-17T19:21:08.177Z,98725.30
2019-03-17T19:23:34.772Z,98723.30
2019-03-17T19:26:01.485Z,98721.95
2019-03-17T19:28:28.064Z,98728.43
2019-03-17T19:30:54.750Z,98731.30
2019-03-17T19:33:21.571Z,98741.69
2019-03-17T19:35:48.292Z,98742.87
2019-03-17T19:38:14.853Z,98745.45
2019-03-17T19:40:41.526Z,98742.58
2019-03-17T19:43:08.326Z,98735.32
2019-03-17T19:45:35.001Z,98746.43
2019-03-17T19:48:01.693Z,98748.06
2019-03-17T19:50:28.458Z,98762.64
2019-03-17T19:52:55.147Z,98760.17
2019-03-17T19:55:21.946Z,98771.86
2019-03-17T19:57:48.772Z,98773.39
2019-03-17T20:00:15.573Z,98784.81
2019-03-17T20:02:42.408Z,98787.61
2019-03-17T20:05:09.743Z,98785.50
2019-03-17T20:07:36.314Z,98784.83
2019-03-17T20:10:03.608Z,98800.44
2019-03-17T20:12:30.401Z,98802.91
2019-03-17T20:14:57.166Z,98782.28
2019-03-17T20:17:23.760Z,98800.44
2019-03-17T20:19:50.326Z,98809.70
2019-03-17T20:22:17.016Z,98812.42
2019-03-17T20:24:43.690Z,98813.36
2019-03-17T20:27:10.473Z,98819.98
2019-03-17T20:29:37.231Z,98822.57
2019-03-17T20:32:04.061Z,98821.57
2019-03-17T20:34:30.769Z,98822.34
2019-03-17T20:36:57.602Z,98821.55
2019-03-17T20:39:24.275Z,98823.71
2019-03-17T20:41:50.952Z,98826.02
2019-03-17T20:44:17.682Z,98822.31
2019-03-17T20:46:44.365Z,98825.44
2019-03-17T20:49:11.074Z,98838.98
2019-03-17T20:51:37.860Z,98836.53
2019-03-17T20:54:04.676Z,98847.02
2019-03-17T20:56:31.463Z,98839.81
2019-03-17T20:58:58.157Z,98838.03
2019-03-17T21:01:24.924Z,98842.45
2019-03-17T21:03:51.630Z,98819.98
2019-03-17T21:06:18.320Z,98841.59
2019-03-17T21:08:45.031Z,98831.62
2019-03-17T21:11:11.620Z,98849.35
2019-03-17T21:13:46.656Z,98852.78
2019-03-17T21:16:06.919Z,98850.74
2019-03-17T21:18:33.515Z,98836.72
2019-03-17T21:21:00.237Z,98857.87
2019-03-17T21:23:26.843Z,98870.99
2019-03-17T21:25:53.539Z,98868.66
2019-03-17T21:28:20.252Z,98865.59
2019-03-17T21:30:47.050Z,98874.30
2019-03-17T21:33:13.652Z,98881.92
2019-03-17T21:35:40.427Z,98879.25
2019-03-17T21:38:08.405Z,98886.39
2019-03-17T21:40:35.175Z,98892.85
2019-03-17T21:43:01.968Z,98891.57
2019-03-17T21:45:28.770Z,98882.75
2019-03-17T21:47:55.595Z,98893.23
2019-03-17T21:50:22.379Z,98893.95
2019-03-17T21:52:49.059Z,98875.47
2019-03-17T21:55:15.841Z,98895.84
2019-03-17T21:57:42.658Z,98899.20
2019-03-17T22:00:11.641Z,98897.46
2019-03-17T22:02:38.339Z,98906.44
2019-03-17T22:05:05.153Z,98890.38
2019-03-17T22:07:31.842Z,98906.89
2019-03-17T22:09:58.570Z,98902.20
2019-03-17T22:12:25.261Z,98911.06
2019-03-17T22:14:52.087Z,98923.80
2019-03-17T22:17:18.732Z,98912.00
2019-03-17T22:19:45.319Z,98919.76
2019-03-17T22:22:12.011Z,98921.93
2019-03-17T22:24:38.696Z,98936.55
2019-03-17T22:27:05.492Z,98913.20
2019-03-17T22:29:32.343Z,98921.37
2019-03-17T22:31:59.060Z,98916.30
2019-03-17T22:34:25.883Z,98937.27
2019-03-17T22:36:52.560Z,98934.81
2019-03-17T22:39:19.243Z,98922.94
2019-03-17T22:41:46.028Z,98939.00
2019-03-17T22:44:23.938Z,98935.98
2019-03-17T22:46:41.155Z,98933.80
2019-03-17T22:49:07.861Z,98918.81
2019-03-17T22:51:34.703Z,98922.55
2019-03-17T22:54:01.523Z,98922.45
2019-03-17T22:56:28.227Z,98933.47
2019-03-17T22:58:55.079Z,98938.80
2019-03-17T23:01:21.879Z,98939.08
2019-03-17T23:03:48.840Z,98949.09
2019-03-17T23:06:15.527Z,98942.47
2019-03-17T23:08:42.114Z,98941.75
2019-03-17T23:11:09.149Z,98937.29
2019-03-17T23:13:35.859Z,98932.00
2019-03-17T23:16:02.664Z,98948.75
2019-03-17T23:18:29.456Z,98961.77
2019-03-17T23:20:56.249Z,98950.03
2019-03-17T23:23:23.023Z,98950.17
2019-03-17T23:25:49.815Z,98961.48
2019-03-17T23:28:16.385Z,98952.28
2019-03-17T23:30:43.220Z,98935.33
2019-03-17T23:33:09.908Z,98927.70
2019-03-17T23:35:36.714Z,98971.45
2019-03-17T23:38:03.392Z,98954.42
2019-03-17T23:40:30.251Z,98957.61
2019-03-17T23:42:57.361Z,98962.01
2019-03-17T23:45:24.074Z,98958.58
2019-03-17T23:47:50.858Z,98965.78
2019-03-17T23:50:17.659Z,98951.13
2019-03-17T23:52:44.425Z,98958.16
2019-03-17T23:55:11.242Z,98961.55
2019-03-17T23:57:38.046Z,98961.94
